sensor_id;sensor_type;location;lat;lon;timestamp;P1;durP1;ratioP1;P2;durP2;ratioP2
1350;SDS011;669;50.206;9.998;2023-02-18T00:00:33;5.43;;;4.93;;
1350;SDS011;669;50.206;9.998;2023-02-18T00:03:01;6.33;;;5.83;;
1350;SDS011;669;50.206;9.998;2023-02-18T00:05:29;7.00;;;6.33;;
1350;SDS011;669;50.206;9.998;2023-02-18T00:07:57;5.93;;;5.40;;
1350;SDS011;669;50.206;9.998;2023-02-18T00:10:26;5.67;;;5.13;;
1350;SDS011;669;50.206;9.998;2023-02-18T00:12:53;5.80;;;5.30;;
1350;SDS011;669;50.206;9.998;2023-02-18T00:15:21;6.73;;;6.07;;
1350;SDS011;669;50.206;9.998;2023-02-18T00:17:49;8.53;;;6.57;;
1350;SDS011;669;50.206;9.998;2023-02-18T00:20:17;6.30;;;5.80;;
1350;SDS011;669;50.206;9.998;2023-02-18T00:22:45;6.43;;;5.83;;
1350;SDS011;669;50.206;9.998;2023-02-18T00:25:13;5.50;;;5.00;;
1350;SDS011;669;50.206;9.998;2023-02-18T00:27:42;6.43;;;5.57;;
1350;SDS011;669;50.206;9.998;2023-02-18T00:30:10;5.93;;;4.83;;
1350;SDS011;669;50.206;9.998;2023-02-18T00:32:38;6.37;;;5.33;;
1350;SDS011;669;50.206;9.998;2023-02-18T00:35:06;5.50;;;4.77;;
1350;SDS011;669;50.206;9.998;2023-02-18T00:37:35;6.37;;;5.20;;
1350;SDS011;669;50.206;9.998;2023-02-18T00:40:03;6.40;;;5.00;;
1350;SDS011;669;50.206;9.998;2023-02-18T00:42:31;4.80;;;4.40;;
1350;SDS011;669;50.206;9.998;2023-02-18T00:45:01;6.80;;;4.57;;
1350;SDS011;669;50.206;9.998;2023-02-18T00:47:29;5.57;;;5.00;;
1350;SDS011;669;50.206;9.998;2023-02-18T00:49:56;6.40;;;5.80;;
1350;SDS011;669;50.206;9.998;2023-02-18T00:52:24;8.10;;;5.93;;
1350;SDS011;669;50.206;9.998;2023-02-18T00:54:52;6.60;;;6.00;;
1350;SDS011;669;50.206;9.998;2023-02-18T00:57:20;6.30;;;4.83;;
1350;SDS011;669;50.206;9.998;2023-02-18T00:59:47;9.30;;;6.93;;
1350;SDS011;669;50.206;9.998;2023-02-18T01:02:17;6.97;;;5.90;;
1350;SDS011;669;50.206;9.998;2023-02-18T01:04:44;8.83;;;5.90;;
1350;SDS011;669;50.206;9.998;2023-02-18T01:07:12;7.37;;;6.67;;
1350;SDS011;669;50.206;9.998;2023-02-18T01:09:40;6.40;;;5.53;;
1350;SDS011;669;50.206;9.998;2023-02-18T01:12:08;6.17;;;5.53;;
1350;SDS011;669;50.206;9.998;2023-02-18T01:14:36;7.10;;;5.40;;
1350;SDS011;669;50.206;9.998;2023-02-18T01:17:03;6.73;;;4.80;;
1350;SDS011;669;50.206;9.998;2023-02-18T01:19:33;5.83;;;4.97;;
1350;SDS011;669;50.206;9.998;2023-02-18T01:22:00;6.60;;;6.00;;
1350;SDS011;669;50.206;9.998;2023-02-18T01:24:28;6.00;;;4.73;;
1350;SDS011;669;50.206;9.998;2023-02-18T01:26:56;4.47;;;4.03;;
1350;SDS011;669;50.206;9.998;2023-02-18T01:29:24;4.60;;;4.20;;
1350;SDS011;669;50.206;9.998;2023-02-18T01:31:52;3.33;;;3.13;;
1350;SDS011;669;50.206;9.998;2023-02-18T01:34:20;3.77;;;3.47;;
1350;SDS011;669;50.206;9.998;2023-02-18T01:36:49;3.73;;;3.43;;
1350;SDS011;669;50.206;9.998;2023-02-18T01:39:17;3.43;;;3.10;;
1350;SDS011;669;50.206;9.998;2023-02-18T01:41:45;3.13;;;2.90;;
1350;SDS011;669;50.206;9.998;2023-02-18T01:44:14;2.90;;;2.60;;
1350;SDS011;669;50.206;9.998;2023-02-18T01:46:44;2.70;;;2.50;;
1350;SDS011;669;50.206;9.998;2023-02-18T01:49:13;3.13;;;2.83;;
1350;SDS011;669;50.206;9.998;2023-02-18T01:51:45;3.40;;;3.10;;
1350;SDS011;669;50.206;9.998;2023-02-18T01:54:17;2.33;;;2.13;;
1350;SDS011;669;50.206;9.998;2023-02-18T01:56:49;5.40;;;2.67;;
1350;SDS011;669;50.206;9.998;2023-02-18T01:59:22;2.67;;;2.47;;
1350;SDS011;669;50.206;9.998;2023-02-18T02:01:51;2.40;;;2.30;;
1350;SDS011;669;50.206;9.998;2023-02-18T02:04:21;3.20;;;2.90;;
1350;SDS011;669;50.206;9.998;2023-02-18T02:06:49;2.77;;;2.57;;
1350;SDS011;669;50.206;9.998;2023-02-18T02:09:19;2.20;;;2.10;;
1350;SDS011;669;50.206;9.998;2023-02-18T02:11:56;3.00;;;2.60;;
1350;SDS011;669;50.206;9.998;2023-02-18T02:14:49;3.10;;;2.90;;
1350;SDS011;669;50.206;9.998;2023-02-18T02:17:35;2.83;;;2.63;;
1350;SDS011;669;50.206;9.998;2023-02-18T02:20:27;2.33;;;2.03;;
1350;SDS011;669;50.206;9.998;2023-02-18T02:23:40;2.80;;;2.60;;
1350;SDS011;669;50.206;9.998;2023-02-18T02:26:38;3.20;;;3.00;;
1350;SDS011;669;50.206;9.998;2023-02-18T02:29:30;3.30;;;3.00;;
1350;SDS011;669;50.206;9.998;2023-02-18T02:32:20;3.43;;;3.20;;
1350;SDS011;669;50.206;9.998;2023-02-18T02:35:03;4.03;;;3.20;;
1350;SDS011;669;50.206;9.998;2023-02-18T02:37:36;2.87;;;2.67;;
1350;SDS011;669;50.206;9.998;2023-02-18T02:40:15;3.93;;;3.60;;
1350;SDS011;669;50.206;9.998;2023-02-18T02:42:56;3.20;;;3.00;;
1350;SDS011;669;50.206;9.998;2023-02-18T02:45:35;4.20;;;3.07;;
1350;SDS011;669;50.206;9.998;2023-02-18T02:48:14;3.20;;;2.90;;
1350;SDS011;669;50.206;9.998;2023-02-18T02:50:51;3.27;;;2.97;;
1350;SDS011;669;50.206;9.998;2023-02-18T02:53:25;3.03;;;2.83;;
1350;SDS011;669;50.206;9.998;2023-02-18T02:55:56;3.97;;;3.27;;
1350;SDS011;669;50.206;9.998;2023-02-18T02:58:23;3.00;;;2.80;;
1350;SDS011;669;50.206;9.998;2023-02-18T03:00:55;2.70;;;2.50;;
1350;SDS011;669;50.206;9.998;2023-02-18T03:03:42;3.40;;;3.10;;
1350;SDS011;669;50.206;9.998;2023-02-18T03:06:29;2.73;;;2.53;;
1350;SDS011;669;50.206;9.998;2023-02-18T03:09:15;2.80;;;2.70;;
1350;SDS011;669;50.206;9.998;2023-02-18T03:11:50;2.50;;;2.37;;
1350;SDS011;669;50.206;9.998;2023-02-18T03:14:26;2.20;;;2.10;;
1350;SDS011;669;50.206;9.998;2023-02-18T03:16:57;2.60;;;2.43;;
1350;SDS011;669;50.206;9.998;2023-02-18T03:19:31;2.33;;;2.23;;
1350;SDS011;669;50.206;9.998;2023-02-18T03:22:04;2.60;;;2.40;;
1350;SDS011;669;50.206;9.998;2023-02-18T03:24:35;2.50;;;1.90;;
1350;SDS011;669;50.206;9.998;2023-02-18T03:27:07;1.93;;;1.83;;
1350;SDS011;669;50.206;9.998;2023-02-18T03:29:37;2.10;;;1.67;;
1350;SDS011;669;50.206;9.998;2023-02-18T03:32:07;2.33;;;1.93;;
1350;SDS011;669;50.206;9.998;2023-02-18T03:34:39;1.50;;;1.40;;
1350;SDS011;669;50.206;9.998;2023-02-18T03:37:11;2.13;;;1.90;;
1350;SDS011;669;50.206;9.998;2023-02-18T03:39:40;1.57;;;1.47;;
1350;SDS011;669;50.206;9.998;2023-02-18T03:42:12;1.67;;;1.57;;
1350;SDS011;669;50.206;9.998;2023-02-18T03:44:42;2.20;;;2.00;;
1350;SDS011;669;50.206;9.998;2023-02-18T03:47:09;2.53;;;1.77;;
1350;SDS011;669;50.206;9.998;2023-02-18T03:49:38;7.30;;;1.80;;
1350;SDS011;669;50.206;9.998;2023-02-18T03:52:05;2.00;;;1.43;;
1350;SDS011;669;50.206;9.998;2023-02-18T03:54:34;1.57;;;1.47;;
1350;SDS011;669;50.206;9.998;2023-02-18T03:57:02;2.00;;;1.80;;
1350;SDS011;669;50.206;9.998;2023-02-18T03:59:30;1.90;;;1.80;;
1350;SDS011;669;50.206;9.998;2023-02-18T04:01:58;1.90;;;1.60;;
1350;SDS011;669;50.206;9.998;2023-02-18T04:04:26;1.90;;;1.80;;
1350;SDS011;669;50.206;9.998;2023-02-18T04:06:54;1.80;;;1.70;;
1350;SDS011;669;50.206;9.998;2023-02-18T04:09:22;3.30;;;2.00;;
1350;SDS011;669;50.206;9.998;2023-02-18T04:11:51;2.30;;;2.10;;
1350;SDS011;669;50.206;9.998;2023-02-18T04:14:19;1.27;;;1.17;;
1350;SDS011;669;50.206;9.998;2023-02-18T04:16:47;1.80;;;1.70;;
1350;SDS011;669;50.206;9.998;2023-02-18T04:19:15;2.70;;;1.50;;
1350;SDS011;669;50.206;9.998;2023-02-18T04:21:43;1.60;;;1.50;;
1350;SDS011;669;50.206;9.998;2023-02-18T04:24:11;1.40;;;1.30;;
1350;SDS011;669;50.206;9.998;2023-02-18T04:26:39;1.90;;;1.80;;
1350;SDS011;669;50.206;9.998;2023-02-18T04:29:08;1.80;;;1.70;;
1350;SDS011;669;50.206;9.998;2023-02-18T04:31:36;2.47;;;1.70;;
1350;SDS011;669;50.206;9.998;2023-02-18T04:34:04;1.70;;;1.60;;
1350;SDS011;669;50.206;9.998;2023-02-18T04:36:33;1.80;;;1.70;;
1350;SDS011;669;50.206;9.998;2023-02-18T04:39:01;1.50;;;1.40;;
1350;SDS011;669;50.206;9.998;2023-02-18T04:41:29;2.17;;;1.97;;
1350;SDS011;669;50.206;9.998;2023-02-18T04:43:57;2.90;;;1.70;;
1350;SDS011;669;50.206;9.998;2023-02-18T04:46:27;1.90;;;1.50;;
1350;SDS011;669;50.206;9.998;2023-02-18T04:48:55;1.40;;;1.40;;
1350;SDS011;669;50.206;9.998;2023-02-18T04:51:23;1.60;;;1.50;;
1350;SDS011;669;50.206;9.998;2023-02-18T04:53:51;1.37;;;1.27;;
1350;SDS011;669;50.206;9.998;2023-02-18T04:56:19;1.57;;;1.40;;
1350;SDS011;669;50.206;9.998;2023-02-18T04:58:47;1.67;;;1.57;;
1350;SDS011;669;50.206;9.998;2023-02-18T05:01:14;2.10;;;1.20;;
1350;SDS011;669;50.206;9.998;2023-02-18T05:03:44;1.30;;;1.10;;
1350;SDS011;669;50.206;9.998;2023-02-18T05:06:12;2.00;;;0.97;;
1350;SDS011;669;50.206;9.998;2023-02-18T05:08:40;0.90;;;0.90;;
1350;SDS011;669;50.206;9.998;2023-02-18T05:11:07;2.20;;;0.70;;
1350;SDS011;669;50.206;9.998;2023-02-18T05:13:36;0.60;;;0.60;;
1350;SDS011;669;50.206;9.998;2023-02-18T05:16:04;1.67;;;0.90;;
1350;SDS011;669;50.206;9.998;2023-02-18T05:18:32;0.87;;;0.73;;
1350;SDS011;669;50.206;9.998;2023-02-18T05:21:02;0.50;;;0.50;;
1350;SDS011;669;50.206;9.998;2023-02-18T05:23:30;1.00;;;0.70;;
1350;SDS011;669;50.206;9.998;2023-02-18T05:25:58;0.63;;;0.63;;
1350;SDS011;669;50.206;9.998;2023-02-18T05:28:26;1.30;;;1.20;;
1350;SDS011;669;50.206;9.998;2023-02-18T05:30:54;0.90;;;0.90;;
1350;SDS011;669;50.206;9.998;2023-02-18T05:33:22;1.07;;;1.07;;
1350;SDS011;669;50.206;9.998;2023-02-18T05:35:50;1.80;;;1.40;;
1350;SDS011;669;50.206;9.998;2023-02-18T05:38:19;0.77;;;0.77;;
1350;SDS011;669;50.206;9.998;2023-02-18T05:40:47;1.27;;;1.20;;
1350;SDS011;669;50.206;9.998;2023-02-18T05:43:15;1.30;;;1.30;;
1350;SDS011;669;50.206;9.998;2023-02-18T05:45:43;1.30;;;1.30;;
1350;SDS011;669;50.206;9.998;2023-02-18T05:48:11;1.33;;;1.33;;
1350;SDS011;669;50.206;9.998;2023-02-18T05:50:39;1.00;;;1.00;;
1350;SDS011;669;50.206;9.998;2023-02-18T05:53:08;2.07;;;1.87;;
1350;SDS011;669;50.206;9.998;2023-02-18T05:55:37;1.63;;;1.53;;
1350;SDS011;669;50.206;9.998;2023-02-18T05:58:05;2.07;;;1.83;;
1350;SDS011;669;50.206;9.998;2023-02-18T06:00:33;3.90;;;2.20;;
1350;SDS011;669;50.206;9.998;2023-02-18T06:03:01;3.30;;;2.27;;
1350;SDS011;669;50.206;9.998;2023-02-18T06:05:29;2.57;;;2.37;;
1350;SDS011;669;50.206;9.998;2023-02-18T06:07:57;2.73;;;2.53;;
1350;SDS011;669;50.206;9.998;2023-02-18T06:10:25;2.53;;;2.33;;
1350;SDS011;669;50.206;9.998;2023-02-18T06:12:54;3.63;;;1.83;;
1350;SDS011;669;50.206;9.998;2023-02-18T06:15:22;3.63;;;3.33;;
1350;SDS011;669;50.206;9.998;2023-02-18T06:17:50;3.43;;;2.30;;
1350;SDS011;669;50.206;9.998;2023-02-18T06:20:18;2.27;;;2.07;;
1350;SDS011;669;50.206;9.998;2023-02-18T06:22:46;2.17;;;2.07;;
1350;SDS011;669;50.206;9.998;2023-02-18T06:25:13;2.10;;;2.00;;
1350;SDS011;669;50.206;9.998;2023-02-18T06:27:42;2.40;;;2.20;;
1350;SDS011;669;50.206;9.998;2023-02-18T06:30:11;2.10;;;1.90;;
1350;SDS011;669;50.206;9.998;2023-02-18T06:32:40;3.50;;;2.50;;
1350;SDS011;669;50.206;9.998;2023-02-18T06:35:07;3.00;;;2.20;;
1350;SDS011;669;50.206;9.998;2023-02-18T06:37:36;3.43;;;2.50;;
1350;SDS011;669;50.206;9.998;2023-02-18T06:40:04;1.70;;;1.60;;
1350;SDS011;669;50.206;9.998;2023-02-18T06:42:33;3.17;;;2.30;;
1350;SDS011;669;50.206;9.998;2023-02-18T06:45:01;2.20;;;2.00;;
1350;SDS011;669;50.206;9.998;2023-02-18T06:47:33;1.80;;;1.70;;
1350;SDS011;669;50.206;9.998;2023-02-18T06:50:01;2.63;;;1.77;;
1350;SDS011;669;50.206;9.998;2023-02-18T06:52:30;2.30;;;2.10;;
1350;SDS011;669;50.206;9.998;2023-02-18T06:54:59;1.73;;;1.63;;
1350;SDS011;669;50.206;9.998;2023-02-18T06:57:27;2.30;;;1.80;;
1350;SDS011;669;50.206;9.998;2023-02-18T06:59:55;1.53;;;1.43;;
1350;SDS011;669;50.206;9.998;2023-02-18T07:02:23;1.77;;;1.50;;
1350;SDS011;669;50.206;9.998;2023-02-18T07:04:52;2.00;;;1.83;;
1350;SDS011;669;50.206;9.998;2023-02-18T07:07:20;1.80;;;1.70;;
1350;SDS011;669;50.206;9.998;2023-02-18T07:09:48;1.70;;;1.60;;
1350;SDS011;669;50.206;9.998;2023-02-18T07:12:16;2.67;;;2.10;;
1350;SDS011;669;50.206;9.998;2023-02-18T07:14:44;3.67;;;3.07;;
1350;SDS011;669;50.206;9.998;2023-02-18T07:17:12;7.33;;;3.10;;
1350;SDS011;669;50.206;9.998;2023-02-18T07:19:40;5.67;;;3.93;;
1350;SDS011;669;50.206;9.998;2023-02-18T07:22:09;5.97;;;3.87;;
1350;SDS011;669;50.206;9.998;2023-02-18T07:24:37;7.37;;;5.33;;
1350;SDS011;669;50.206;9.998;2023-02-18T07:27:05;10.97;;;6.90;;
1350;SDS011;669;50.206;9.998;2023-02-18T07:29:33;7.23;;;6.50;;
1350;SDS011;669;50.206;9.998;2023-02-18T07:32:01;9.17;;;7.20;;
1350;SDS011;669;50.206;9.998;2023-02-18T07:34:29;9.37;;;8.30;;
1350;SDS011;669;50.206;9.998;2023-02-18T07:36:57;9.50;;;8.23;;
1350;SDS011;669;50.206;9.998;2023-02-18T07:39:26;10.17;;;8.37;;
1350;SDS011;669;50.206;9.998;2023-02-18T07:41:54;10.90;;;8.63;;
1350;SDS011;669;50.206;9.998;2023-02-18T07:44:22;11.70;;;9.50;;
1350;SDS011;669;50.206;9.998;2023-02-18T07:46:52;8.80;;;7.90;;
1350;SDS011;669;50.206;9.998;2023-02-18T07:49:20;9.20;;;7.70;;
1350;SDS011;669;50.206;9.998;2023-02-18T07:51:48;11.17;;;8.07;;
1350;SDS011;669;50.206;9.998;2023-02-18T07:54:17;9.83;;;8.40;;
1350;SDS011;669;50.206;9.998;2023-02-18T07:56:46;9.70;;;8.17;;
1350;SDS011;669;50.206;9.998;2023-02-18T07:59:14;11.70;;;8.27;;
1350;SDS011;669;50.206;9.998;2023-02-18T08:01:42;8.73;;;7.83;;
1350;SDS011;669;50.206;9.998;2023-02-18T08:04:11;8.10;;;7.30;;
1350;SDS011;669;50.206;9.998;2023-02-18T08:06:41;8.37;;;7.57;;
1350;SDS011;669;50.206;9.998;2023-02-18T08:09:11;8.20;;;7.10;;
1350;SDS011;669;50.206;9.998;2023-02-18T08:11:40;8.00;;;7.23;;
1350;SDS011;669;50.206;9.998;2023-02-18T08:14:09;7.57;;;6.10;;
1350;SDS011;669;50.206;9.998;2023-02-18T08:16:38;7.73;;;6.30;;
1350;SDS011;669;50.206;9.998;2023-02-18T08:19:06;7.70;;;6.93;;
1350;SDS011;669;50.206;9.998;2023-02-18T08:21:34;6.27;;;5.67;;
1350;SDS011;669;50.206;9.998;2023-02-18T08:24:02;6.03;;;5.33;;
1350;SDS011;669;50.206;9.998;2023-02-18T08:26:30;9.43;;;5.00;;
1350;SDS011;669;50.206;9.998;2023-02-18T08:28:58;4.83;;;4.33;;
1350;SDS011;669;50.206;9.998;2023-02-18T08:31:27;6.33;;;5.20;;
1350;SDS011;669;50.206;9.998;2023-02-18T08:33:57;6.10;;;5.50;;
1350;SDS011;669;50.206;9.998;2023-02-18T08:36:26;5.30;;;4.80;;
1350;SDS011;669;50.206;9.998;2023-02-18T08:38:54;4.07;;;3.53;;
1350;SDS011;669;50.206;9.998;2023-02-18T08:41:22;4.73;;;4.33;;
1350;SDS011;669;50.206;9.998;2023-02-18T08:43:50;4.17;;;3.87;;
1350;SDS011;669;50.206;9.998;2023-02-18T08:46:18;5.00;;;4.50;;
1350;SDS011;669;50.206;9.998;2023-02-18T08:48:59;4.97;;;4.10;;
1350;SDS011;669;50.206;9.998;2023-02-18T08:51:27;4.67;;;4.23;;
1350;SDS011;669;50.206;9.998;2023-02-18T08:53:56;5.03;;;4.30;;
1350;SDS011;669;50.206;9.998;2023-02-18T08:56:24;4.00;;;3.70;;
1350;SDS011;669;50.206;9.998;2023-02-18T08:58:52;6.27;;;4.80;;
1350;SDS011;669;50.206;9.998;2023-02-18T09:01:20;5.90;;;4.30;;
1350;SDS011;669;50.206;9.998;2023-02-18T09:03:48;3.23;;;2.93;;
1350;SDS011;669;50.206;9.998;2023-02-18T09:06:18;3.43;;;3.13;;
1350;SDS011;669;50.206;9.998;2023-02-18T09:08:45;4.40;;;3.70;;
1350;SDS011;669;50.206;9.998;2023-02-18T09:11:13;4.27;;;3.87;;
1350;SDS011;669;50.206;9.998;2023-02-18T09:13:42;3.97;;;2.80;;
1350;SDS011;669;50.206;9.998;2023-02-18T09:16:11;3.47;;;3.27;;
1350;SDS011;669;50.206;9.998;2023-02-18T09:18:40;3.30;;;3.00;;
1350;SDS011;669;50.206;9.998;2023-02-18T09:21:10;3.60;;;3.30;;
1350;SDS011;669;50.206;9.998;2023-02-18T09:23:40;3.53;;;3.33;;
1350;SDS011;669;50.206;9.998;2023-02-18T09:26:09;5.87;;;4.27;;
1350;SDS011;669;50.206;9.998;2023-02-18T09:28:39;3.83;;;3.53;;
1350;SDS011;669;50.206;9.998;2023-02-18T09:31:08;3.53;;;3.23;;
1350;SDS011;669;50.206;9.998;2023-02-18T09:33:39;4.23;;;3.93;;
1350;SDS011;669;50.206;9.998;2023-02-18T09:36:11;4.73;;;4.13;;
1350;SDS011;669;50.206;9.998;2023-02-18T09:38:40;3.93;;;3.63;;
1350;SDS011;669;50.206;9.998;2023-02-18T09:41:15;4.80;;;3.50;;
1350;SDS011;669;50.206;9.998;2023-02-18T09:43:52;5.10;;;4.40;;
1350;SDS011;669;50.206;9.998;2023-02-18T09:46:23;5.53;;;4.23;;
1350;SDS011;669;50.206;9.998;2023-02-18T09:48:56;4.50;;;4.10;;
1350;SDS011;669;50.206;9.998;2023-02-18T09:51:27;5.23;;;4.47;;
1350;SDS011;669;50.206;9.998;2023-02-18T09:53:56;4.13;;;3.77;;
1350;SDS011;669;50.206;9.998;2023-02-18T09:56:26;5.00;;;4.50;;
1350;SDS011;669;50.206;9.998;2023-02-18T09:58:57;3.50;;;3.30;;
1350;SDS011;669;50.206;9.998;2023-02-18T10:01:30;4.37;;;3.93;;
1350;SDS011;669;50.206;9.998;2023-02-18T10:04:01;3.80;;;3.40;;
1350;SDS011;669;50.206;9.998;2023-02-18T10:06:32;3.53;;;3.20;;
1350;SDS011;669;50.206;9.998;2023-02-18T10:09:03;3.20;;;2.87;;
1350;SDS011;669;50.206;9.998;2023-02-18T10:11:40;3.10;;;2.80;;
1350;SDS011;669;50.206;9.998;2023-02-18T10:14:10;4.57;;;3.23;;
1350;SDS011;669;50.206;9.998;2023-02-18T10:16:40;3.10;;;2.80;;
1350;SDS011;669;50.206;9.998;2023-02-18T10:19:14;2.70;;;2.50;;
1350;SDS011;669;50.206;9.998;2023-02-18T10:21:48;3.23;;;2.93;;
1350;SDS011;669;50.206;9.998;2023-02-18T10:24:21;2.90;;;2.70;;
1350;SDS011;669;50.206;9.998;2023-02-18T10:26:54;2.40;;;2.20;;
1350;SDS011;669;50.206;9.998;2023-02-18T10:29:23;2.80;;;2.60;;
1350;SDS011;669;50.206;9.998;2023-02-18T10:31:53;2.33;;;2.13;;
1350;SDS011;669;50.206;9.998;2023-02-18T10:34:29;1.87;;;1.77;;
1350;SDS011;669;50.206;9.998;2023-02-18T10:37:10;2.20;;;2.10;;
1350;SDS011;669;50.206;9.998;2023-02-18T10:39:57;2.43;;;2.27;;
1350;SDS011;669;50.206;9.998;2023-02-18T10:42:35;1.60;;;1.50;;
1350;SDS011;669;50.206;9.998;2023-02-18T10:45:13;2.53;;;2.10;;
1350;SDS011;669;50.206;9.998;2023-02-18T10:47:49;1.90;;;1.80;;
1350;SDS011;669;50.206;9.998;2023-02-18T10:50:24;3.83;;;2.67;;
1350;SDS011;669;50.206;9.998;2023-02-18T10:52:56;2.87;;;2.60;;
1350;SDS011;669;50.206;9.998;2023-02-18T10:55:36;2.13;;;1.90;;
1350;SDS011;669;50.206;9.998;2023-02-18T10:58:22;2.90;;;2.67;;
1350;SDS011;669;50.206;9.998;2023-02-18T11:00:52;2.57;;;2.37;;
1350;SDS011;669;50.206;9.998;2023-02-18T11:03:21;2.73;;;2.53;;
1350;SDS011;669;50.206;9.998;2023-02-18T11:05:51;3.73;;;2.50;;
1350;SDS011;669;50.206;9.998;2023-02-18T11:08:23;1.93;;;1.80;;
1350;SDS011;669;50.206;9.998;2023-02-18T11:10:54;2.13;;;1.80;;
1350;SDS011;669;50.206;9.998;2023-02-18T11:13:24;1.97;;;1.80;;
1350;SDS011;669;50.206;9.998;2023-02-18T11:15:54;2.60;;;1.60;;
1350;SDS011;669;50.206;9.998;2023-02-18T11:18:29;2.33;;;1.93;;
1350;SDS011;669;50.206;9.998;2023-02-18T11:21:04;1.30;;;1.07;;
1350;SDS011;669;50.206;9.998;2023-02-18T11:23:47;2.00;;;1.77;;
1350;SDS011;669;50.206;9.998;2023-02-18T11:26:18;2.13;;;1.97;;
1350;SDS011;669;50.206;9.998;2023-02-18T11:28:51;3.63;;;1.57;;
1350;SDS011;669;50.206;9.998;2023-02-18T11:31:25;1.70;;;1.60;;
1350;SDS011;669;50.206;9.998;2023-02-18T11:34:05;1.53;;;1.43;;
1350;SDS011;669;50.206;9.998;2023-02-18T11:36:45;2.23;;;1.27;;
1350;SDS011;669;50.206;9.998;2023-02-18T11:39:19;1.30;;;1.30;;
1350;SDS011;669;50.206;9.998;2023-02-18T11:41:56;1.20;;;1.20;;
1350;SDS011;669;50.206;9.998;2023-02-18T11:44:39;1.90;;;1.63;;
1350;SDS011;669;50.206;9.998;2023-02-18T11:47:19;0.83;;;0.83;;
1350;SDS011;669;50.206;9.998;2023-02-18T11:49:58;1.20;;;1.10;;
1350;SDS011;669;50.206;9.998;2023-02-18T11:52:58;1.83;;;1.13;;
1350;SDS011;669;50.206;9.998;2023-02-18T11:55:58;1.20;;;1.07;;
1350;SDS011;669;50.206;9.998;2023-02-18T11:58:40;1.00;;;1.00;;
1350;SDS011;669;50.206;9.998;2023-02-18T12:01:30;0.70;;;0.70;;
1350;SDS011;669;50.206;9.998;2023-02-18T12:04:20;1.13;;;1.03;;
1350;SDS011;669;50.206;9.998;2023-02-18T12:07:00;0.77;;;0.77;;
1350;SDS011;669;50.206;9.998;2023-02-18T12:09:47;1.10;;;1.10;;
1350;SDS011;669;50.206;9.998;2023-02-18T12:12:30;1.90;;;1.23;;
1350;SDS011;669;50.206;9.998;2023-02-18T12:15:19;2.20;;;0.80;;
1350;SDS011;669;50.206;9.998;2023-02-18T12:18:20;0.60;;;0.60;;
1350;SDS011;669;50.206;9.998;2023-02-18T12:21:34;0.87;;;0.80;;
1350;SDS011;669;50.206;9.998;2023-02-18T12:24:42;1.40;;;0.80;;
1350;SDS011;669;50.206;9.998;2023-02-18T12:27:35;1.47;;;0.83;;
1350;SDS011;669;50.206;9.998;2023-02-18T12:30:24;1.60;;;0.63;;
1350;SDS011;669;50.206;9.998;2023-02-18T12:33:05;1.50;;;1.17;;
1350;SDS011;669;50.206;9.998;2023-02-18T12:35:46;2.00;;;0.90;;
1350;SDS011;669;50.206;9.998;2023-02-18T12:38:25;0.73;;;0.73;;
1350;SDS011;669;50.206;9.998;2023-02-18T12:41:18;4.23;;;1.10;;
1350;SDS011;669;50.206;9.998;2023-02-18T12:43:58;0.93;;;0.90;;
1350;SDS011;669;50.206;9.998;2023-02-18T12:46:38;0.97;;;0.80;;
1350;SDS011;669;50.206;9.998;2023-02-18T12:49:24;2.70;;;1.70;;
1350;SDS011;669;50.206;9.998;2023-02-18T12:52:07;0.87;;;0.87;;
1350;SDS011;669;50.206;9.998;2023-02-18T12:54:49;0.90;;;0.90;;
1350;SDS011;669;50.206;9.998;2023-02-18T12:57:38;1.50;;;1.10;;
1350;SDS011;669;50.206;9.998;2023-02-18T13:00:18;1.53;;;1.30;;
1350;SDS011;669;50.206;9.998;2023-02-18T13:06:17;7.00;;;1.20;;
1350;SDS011;669;50.206;9.998;2023-02-18T13:08:57;0.97;;;0.97;;
1350;SDS011;669;50.206;9.998;2023-02-18T13:11:38;1.40;;;1.37;;
1350;SDS011;669;50.206;9.998;2023-02-18T13:14:15;0.83;;;0.80;;
1350;SDS011;669;50.206;9.998;2023-02-18T13:16:47;1.77;;;1.27;;
1350;SDS011;669;50.206;9.998;2023-02-18T13:19:21;2.40;;;1.40;;
1350;SDS011;669;50.206;9.998;2023-02-18T13:21:52;1.50;;;1.40;;
1350;SDS011;669;50.206;9.998;2023-02-18T13:24:27;4.73;;;1.40;;
1350;SDS011;669;50.206;9.998;2023-02-18T13:27:00;3.30;;;1.40;;
1350;SDS011;669;50.206;9.998;2023-02-18T13:29:41;1.60;;;1.50;;
1350;SDS011;669;50.206;9.998;2023-02-18T13:32:16;3.90;;;1.33;;
1350;SDS011;669;50.206;9.998;2023-02-18T13:34:56;1.77;;;1.67;;
1350;SDS011;669;50.206;9.998;2023-02-18T13:37:30;3.30;;;1.20;;
1350;SDS011;669;50.206;9.998;2023-02-18T13:40:03;1.90;;;1.50;;
1350;SDS011;669;50.206;9.998;2023-02-18T13:42:43;2.03;;;1.83;;
1350;SDS011;669;50.206;9.998;2023-02-18T13:48:00;3.53;;;2.13;;
1350;SDS011;669;50.206;9.998;2023-02-18T13:50:38;2.60;;;1.20;;
1350;SDS011;669;50.206;9.998;2023-02-18T13:53:18;5.13;;;1.63;;
1350;SDS011;669;50.206;9.998;2023-02-18T13:55:50;1.27;;;1.20;;
1350;SDS011;669;50.206;9.998;2023-02-18T13:58:31;2.00;;;1.20;;
1350;SDS011;669;50.206;9.998;2023-02-18T14:01:04;2.80;;;1.37;;
1350;SDS011;669;50.206;9.998;2023-02-18T14:03:51;2.40;;;1.40;;
1350;SDS011;669;50.206;9.998;2023-02-18T14:06:26;2.00;;;1.57;;
1350;SDS011;669;50.206;9.998;2023-02-18T14:09:14;7.90;;;2.00;;
1350;SDS011;669;50.206;9.998;2023-02-18T14:12:16;1.53;;;1.20;;
1350;SDS011;669;50.206;9.998;2023-02-18T14:14:52;3.57;;;1.37;;
1350;SDS011;669;50.206;9.998;2023-02-18T14:17:30;2.70;;;1.43;;
1350;SDS011;669;50.206;9.998;2023-02-18T14:23:16;3.90;;;1.90;;
1350;SDS011;669;50.206;9.998;2023-02-18T14:26:20;2.43;;;1.93;;
1350;SDS011;669;50.206;9.998;2023-02-18T14:28:54;5.13;;;1.67;;
1350;SDS011;669;50.206;9.998;2023-02-18T14:31:29;2.00;;;1.33;;
1350;SDS011;669;50.206;9.998;2023-02-18T14:34:17;3.53;;;1.47;;
1350;SDS011;669;50.206;9.998;2023-02-18T14:40:00;4.37;;;1.90;;
1350;SDS011;669;50.206;9.998;2023-02-18T14:42:41;3.70;;;1.80;;
1350;SDS011;669;50.206;9.998;2023-02-18T14:45:18;3.20;;;1.40;;
1350;SDS011;669;50.206;9.998;2023-02-18T14:48:05;6.40;;;1.97;;
1350;SDS011;669;50.206;9.998;2023-02-18T14:50:43;1.13;;;1.13;;
1350;SDS011;669;50.206;9.998;2023-02-18T14:53:16;4.83;;;3.30;;
1350;SDS011;669;50.206;9.998;2023-02-18T14:55:50;2.43;;;1.30;;
1350;SDS011;669;50.206;9.998;2023-02-18T14:58:24;1.70;;;1.60;;
1350;SDS011;669;50.206;9.998;2023-02-18T15:00:56;1.20;;;1.20;;
1350;SDS011;669;50.206;9.998;2023-02-18T15:03:25;1.30;;;1.27;;
1350;SDS011;669;50.206;9.998;2023-02-18T15:05:53;1.70;;;1.60;;
1350;SDS011;669;50.206;9.998;2023-02-18T15:08:22;2.67;;;1.70;;
1350;SDS011;669;50.206;9.998;2023-02-18T15:10:55;1.10;;;1.10;;
1350;SDS011;669;50.206;9.998;2023-02-18T15:13:27;1.63;;;1.53;;
1350;SDS011;669;50.206;9.998;2023-02-18T15:16:00;2.10;;;1.40;;
1350;SDS011;669;50.206;9.998;2023-02-18T15:18:30;2.70;;;1.50;;
1350;SDS011;669;50.206;9.998;2023-02-18T15:21:02;2.73;;;1.63;;
1350;SDS011;669;50.206;9.998;2023-02-18T15:23:33;2.17;;;1.50;;
1350;SDS011;669;50.206;9.998;2023-02-18T15:26:04;5.30;;;1.57;;
1350;SDS011;669;50.206;9.998;2023-02-18T15:28:38;4.17;;;2.47;;
1350;SDS011;669;50.206;9.998;2023-02-18T15:31:09;1.67;;;1.57;;
1350;SDS011;669;50.206;9.998;2023-02-18T15:33:41;1.60;;;1.50;;
1350;SDS011;669;50.206;9.998;2023-02-18T15:36:11;2.27;;;1.87;;
1350;SDS011;669;50.206;9.998;2023-02-18T15:38:40;2.10;;;1.93;;
1350;SDS011;669;50.206;9.998;2023-02-18T15:41:11;2.53;;;1.60;;
1350;SDS011;669;50.206;9.998;2023-02-18T15:43:50;5.23;;;2.10;;
1350;SDS011;669;50.206;9.998;2023-02-18T15:46:19;6.20;;;2.07;;
1350;SDS011;669;50.206;9.998;2023-02-18T15:48:51;4.83;;;2.17;;
1350;SDS011;669;50.206;9.998;2023-02-18T15:51:21;3.27;;;2.80;;
1350;SDS011;669;50.206;9.998;2023-02-18T15:53:53;3.17;;;1.73;;
1350;SDS011;669;50.206;9.998;2023-02-18T15:56:25;4.97;;;2.40;;
1350;SDS011;669;50.206;9.998;2023-02-18T15:59:07;2.60;;;1.90;;
1350;SDS011;669;50.206;9.998;2023-02-18T16:01:36;1.57;;;1.47;;
1350;SDS011;669;50.206;9.998;2023-02-18T16:04:05;5.43;;;1.50;;
1350;SDS011;669;50.206;9.998;2023-02-18T16:06:34;5.73;;;2.30;;
1350;SDS011;669;50.206;9.998;2023-02-18T16:09:06;2.73;;;1.40;;
1350;SDS011;669;50.206;9.998;2023-02-18T16:11:41;4.10;;;2.20;;
1350;SDS011;669;50.206;9.998;2023-02-18T16:14:26;2.10;;;1.77;;
1350;SDS011;669;50.206;9.998;2023-02-18T16:17:04;4.07;;;1.90;;